Terminal Aerodrome Forecast
Issued by NWS

Home | Current Version | Previous Version | Text Only | Print | Product List | Glossary On
Versions: 1 2 3 4 5 6 7 8 9 10 11 12 13 14 15 16 17 18 19 20 21 22 23 24 25 26 27 28 29 30 31
593
FTUS43 KDLH 220540
TAFBRD
TAF
KBRD 220540Z 2206/2306 04008KT P6SM VCSH OVC015
     FM221200 04010KT P6SM BKN040
     FM221500 04010G17KT P6SM SCT150
     FM230000 04006KT P6SM BKN060=

USA.gov is the U.S. government's official web portal to all federal, state and local government web resources and services.